SLRY  Reyes  Airport

Reyes, Bolivia

Add Bookmark
ICAO SLRY
IATA REY
Type Airport
Status Operational
Latitude
14° 18' 15" S
-14.304400
Longitude
67° 21' 12" W
-67.353401
Local (GMT -4 ) UTC
May 6, 2016 01:32 am May 6, 2016 05:32
Sunrise-Sunset Local UTC
Begin Civil Twilight 06:16 am 10:16
Sunrise 06:39 am 10:39
Sunset 06:12 pm 22:12
End Civil Twilight 06:35 pm 22:35
VFR
VFR
MVFR
MVFR
IFR
IFR
LIFR
LIFR
Unknown
Unavailable

Current Weather

METAR Observed VFR
SLRY 052200Z 00000KT 9999 NSC 29/23 Q1012 Thu, May 5, 2016 @ 22:00 UTC
(7 Hours, 32 Minutes ago)
Visual Flight Rules
Wind Visibility Conditions
Calm 10 km or more
  • No significant weather
Temperatures Readings Precipitation
Current Temp
29°C
84°F
Dewpoint
23°C
73°F
Heat Index
32°C
90°
Humidity 70%
Altimeter 29.88" Hg
Sea Level Pressure 1,012 mb
Field Elevation
280 m
919 ft
None Recorded

Additional weather within a 92.6km radius of SLRY

Map ICAO Location
SLRQ 20.7km SW (229°)
VFR
VFR
MVFR
MVFR
IFR
IFR
LIFR
LIFR
Unknown
Unavailable
-
-

CheckWX.com is intended as a tool to help pilots better visualize weather data. It is not intended as a substitute for an official weather briefing obtained from a Flight Service Station. CheckWX.com does not meet the FAA requirements for an official pre-flight weather briefing. Therefore, it's important that pilots still call and obtain an official FSS pre-flight weather briefing.

© 2007-2016 CheckWX.com
05:32:57 UTC